コロンボ の空港の天気 - METARとTAF

バンダラナイケ国際空港 ( VCBI / CMB ) - スリランカ コロンボ
飛行場実況気象(Metar)
観測時間10/26 03:40 IST (10/25 22:10 UTC)
風向・風速東 1m/s
視程9000m
天気現象
全天の4割程度の雲 雲底高度 520m
気温27℃
湿度89%
気圧1009hPa
METARVCBI 252210Z 08002KT 9000 SCT017 27/25 Q1009 NOSIG
過去の天気等 Google飛行場航空写真 Wunderground天気予報

過去48時間のMETAR

飛行場予報(TAF)
発表時間: 10/25 22:30 IST (10/25 17:00 UTC)
予報対象時間: 25日23時 IST ~ 27日5時 IST
風向・風速不定 3m/s
視程10km以上
少しの雲 雲底高度 520m
26日3時 IST ~ 26日5時 IST に 確率 30% で一時的に
視程7000m
天気現象弱いしゅう雨
少しの雲 雲底高度 370m
全天の8割程度の雲 雲底高度 490m
26日9時 IST ~ 26日11時 IST に徐々に
風向・風速西 4m/s
26日21時 IST ~ 26日23時 IST に徐々に
風向・風速不定 3m/s
TAF VCBI 251700Z 2518/2624 VRB05KT 9999 FEW017 TX31/2608Z TN24/2600Z
PROB30 TEMPO 2522/2600 7000 -SHRA FEW012 BKN016
BECMG 2604/2606 26007KT
BECMG 2616/2618 VRB05KT